createdAt,value
2018-04-12T00:00:47.438Z,93.27
2018-04-12T00:01:47.535Z,92.41
2018-04-12T00:02:47.626Z,92.60
2018-04-12T00:03:47.718Z,91.83
2018-04-12T00:04:47.815Z,90.88
2018-04-12T00:05:47.907Z,90.93
2018-04-12T00:06:48.003Z,90.73
2018-04-12T00:07:48.100Z,90.26
2018-04-12T00:08:48.193Z,91.02
2018-04-12T00:09:48.287Z,90.93
2018-04-12T00:10:48.387Z,91.12
2018-04-12T00:11:48.480Z,90.93
2018-04-12T00:12:48.567Z,90.55
2018-04-12T00:13:48.664Z,90.93
2018-04-12T00:14:48.753Z,90.73
2018-04-12T00:15:48.856Z,90.26
2018-04-12T00:16:48.946Z,90.73
2018-04-12T00:17:49.043Z,90.45
2018-04-12T00:18:49.135Z,90.36
2018-04-12T00:19:49.227Z,90.31
2018-04-12T00:20:49.321Z,90.31
2018-04-12T00:21:49.412Z,90.59
2018-04-12T00:22:49.506Z,90.11
2018-04-12T00:23:49.601Z,89.64
2018-04-12T00:24:49.701Z,90.21
2018-04-12T00:25:49.786Z,90.40
2018-04-12T00:26:49.883Z,90.40
2018-04-12T00:27:49.979Z,90.11
2018-04-12T00:28:50.083Z,90.02
2018-04-12T00:29:50.169Z,90.11
2018-04-12T00:30:50.266Z,89.35
2018-04-12T00:31:50.363Z,89.83
2018-04-12T00:32:50.457Z,90.02
2018-04-12T00:33:50.545Z,90.11
2018-04-12T00:34:50.642Z,90.31
2018-04-12T00:35:50.730Z,90.40
2018-04-12T00:36:50.830Z,89.73
2018-04-12T00:37:50.923Z,90.02
2018-04-12T00:38:51.029Z,90.40
2018-04-12T00:39:51.111Z,89.73
2018-04-12T00:40:51.205Z,89.83
2018-04-12T00:41:51.301Z,89.64
2018-04-12T00:42:51.393Z,89.83
2018-04-12T00:43:51.484Z,89.64
2018-04-12T00:44:51.582Z,89.45
2018-04-12T00:45:51.673Z,90.11
2018-04-12T00:46:51.767Z,89.73
2018-04-12T00:47:51.860Z,89.92
2018-04-12T00:48:51.952Z,89.83
2018-04-12T00:49:52.052Z,90.11
2018-04-12T00:50:52.146Z,89.73
2018-04-12T00:51:52.239Z,89.92
2018-04-12T00:52:52.336Z,89.49
2018-04-12T00:53:52.429Z,89.54
2018-04-12T00:54:52.558Z,89.68
2018-04-12T00:55:52.651Z,89.20
2018-04-12T00:56:52.868Z,89.73
2018-04-12T00:57:52.806Z,89.64
2018-04-12T00:58:52.913Z,90.11
2018-04-12T00:59:53.090Z,90.50
2018-04-12T01:00:53.053Z,91.07
2018-04-12T01:01:53.180Z,91.26
2018-04-12T01:02:53.289Z,90.40
2018-04-12T01:03:53.306Z,90.59
2018-04-12T01:04:53.423Z,90.31
2018-04-12T01:05:53.509Z,90.11
2018-04-12T01:06:53.632Z,90.40
2018-04-12T01:07:53.720Z,89.73
2018-04-12T01:08:53.821Z,89.54
2018-04-12T01:09:53.906Z,89.73
2018-04-12T01:10:54.013Z,89.73
2018-04-12T01:11:54.087Z,89.73
2018-04-12T01:12:54.178Z,90.11
2018-04-12T01:13:54.316Z,90.21
2018-04-12T01:14:54.408Z,90.40
2018-04-12T01:15:54.543Z,89.73
2018-04-12T01:16:54.616Z,89.64
2018-04-12T01:17:54.640Z,89.73
2018-04-12T01:18:54.750Z,90.21
2018-04-12T01:19:54.878Z,89.83
2018-04-12T01:20:54.990Z,90.21
2018-04-12T01:21:55.086Z,90.21
2018-04-12T01:22:55.180Z,90.21
2018-04-12T01:23:55.326Z,90.02
2018-04-12T01:24:55.323Z,89.97
2018-04-12T01:25:55.423Z,89.64
2018-04-12T01:26:55.528Z,90.21
2018-04-12T01:27:55.622Z,90.21
2018-04-12T01:28:55.718Z,90.59
2018-04-12T01:29:55.795Z,90.78
2018-04-12T01:30:55.913Z,90.59
2018-04-12T01:31:55.973Z,90.11
2018-04-12T01:32:56.084Z,89.73
2018-04-12T01:33:56.205Z,90.59
2018-04-12T01:34:56.302Z,90.21
2018-04-12T01:35:56.425Z,89.83
2018-04-12T01:36:56.529Z,90.40
2018-04-12T01:37:56.629Z,90.02
2018-04-12T01:38:56.717Z,90.40
2018-04-12T01:39:56.766Z,89.83
2018-04-12T01:40:56.871Z,90.40
2018-04-12T01:41:56.970Z,90.78
2018-04-12T01:42:57.077Z,90.50
2018-04-12T01:43:57.169Z,90.40
2018-04-12T01:44:57.270Z,90.21
2018-04-12T01:45:57.358Z,90.02
2018-04-12T01:46:57.462Z,90.21
2018-04-12T01:47:57.548Z,89.83
2018-04-12T01:48:57.675Z,89.64
2018-04-12T01:49:57.778Z,89.73
2018-04-12T01:50:57.888Z,90.02
2018-04-12T01:51:58.009Z,90.40
2018-04-12T01:52:58.105Z,90.78
2018-04-12T01:53:58.205Z,90.31
2018-04-12T01:54:58.280Z,90.59
2018-04-12T01:55:58.374Z,90.21
2018-04-12T01:56:58.498Z,90.69
2018-04-12T01:57:58.594Z,90.78
2018-04-12T01:58:58.687Z,90.88
2018-04-12T01:59:58.783Z,90.97
2018-04-12T02:00:58.866Z,90.97
2018-04-12T02:01:58.944Z,91.16
2018-04-12T02:02:59.066Z,90.78
2018-04-12T02:03:59.156Z,90.50
2018-04-12T02:04:59.249Z,90.40
2018-04-12T02:05:59.358Z,90.40
2018-04-12T02:06:59.466Z,90.78
2018-04-12T02:07:59.563Z,90.78
2018-04-12T02:08:59.652Z,90.11
2018-04-12T02:09:59.747Z,90.11
2018-04-12T02:10:59.838Z,90.31
2018-04-12T02:11:59.931Z,90.31
2018-04-12T02:13:00.011Z,90.40
2018-04-12T02:14:00.103Z,90.59
2018-04-12T02:15:00.187Z,90.02
2018-04-12T02:16:00.324Z,90.11
2018-04-12T02:17:00.431Z,90.11
2018-04-12T02:18:00.524Z,90.40
2018-04-12T02:19:00.618Z,90.02
2018-04-12T02:20:00.696Z,89.78
2018-04-12T02:21:00.790Z,90.16
2018-04-12T02:22:00.879Z,90.25
2018-04-12T02:23:00.977Z,90.16
2018-04-12T02:24:01.063Z,90.02
2018-04-12T02:25:01.141Z,89.73
2018-04-12T02:26:01.255Z,89.73
2018-04-12T02:27:01.341Z,90.11
2018-04-12T02:28:01.448Z,89.87
2018-04-12T02:29:01.536Z,89.78
2018-04-12T02:30:01.623Z,89.73
2018-04-12T02:31:01.786Z,89.73
2018-04-12T02:32:01.741Z,89.64
2018-04-12T02:33:01.844Z,89.39
2018-04-12T02:34:01.934Z,89.83
2018-04-12T02:35:02.049Z,89.64
2018-04-12T02:36:02.101Z,89.73
2018-04-12T02:37:02.188Z,89.78
2018-04-12T02:38:02.277Z,89.83
2018-04-12T02:39:02.353Z,89.83
2018-04-12T02:40:02.519Z,90.02
2018-04-12T02:41:02.501Z,90.40
2018-04-12T02:42:02.580Z,90.40
2018-04-12T02:43:02.672Z,89.64
2018-04-12T02:44:02.755Z,89.45
2018-04-12T02:45:02.854Z,89.64
2018-04-12T02:46:02.942Z,89.83
2018-04-12T02:47:03.034Z,89.83
2018-04-12T02:48:03.125Z,89.64
2018-04-12T02:49:03.243Z,90.21
2018-04-12T02:50:03.350Z,90.40
2018-04-12T02:51:03.451Z,90.59
2018-04-12T02:52:03.541Z,90.21
2018-04-12T02:53:03.630Z,89.92
2018-04-12T02:54:03.725Z,90.21
2018-04-12T02:55:03.826Z,89.83
2018-04-12T02:56:03.911Z,89.73
2018-04-12T02:57:04.015Z,89.83
2018-04-12T02:58:04.098Z,89.64
2018-04-12T02:59:04.184Z,90.88
2018-04-12T03:00:04.280Z,90.69
2018-04-12T03:01:04.390Z,90.40
2018-04-12T03:02:04.467Z,90.69
2018-04-12T03:03:04.562Z,90.31
2018-04-12T03:04:04.644Z,90.50
2018-04-12T03:05:04.756Z,90.40
2018-04-12T03:06:04.845Z,90.59
2018-04-12T03:07:04.943Z,90.40
2018-04-12T03:08:05.031Z,90.97
2018-04-12T03:09:05.103Z,90.88
2018-04-12T03:10:05.212Z,90.40
2018-04-12T03:11:05.324Z,90.97
2018-04-12T03:12:05.414Z,90.40
2018-04-12T03:13:05.498Z,89.64
2018-04-12T03:14:05.591Z,89.92
2018-04-12T03:15:05.681Z,89.54
2018-04-12T03:16:05.777Z,89.35
2018-04-12T03:17:05.871Z,89.92
2018-04-12T03:18:05.977Z,89.97
2018-04-12T03:19:06.065Z,89.39
2018-04-12T03:20:06.157Z,89.64
2018-04-12T03:21:06.251Z,89.68
2018-04-12T03:22:06.349Z,89.83
2018-04-12T03:23:06.448Z,89.39
2018-04-12T03:24:06.547Z,89.73
2018-04-12T03:25:06.641Z,89.59
2018-04-12T03:26:06.738Z,89.68
2018-04-12T03:27:06.835Z,89.78
2018-04-12T03:28:06.928Z,89.68
2018-04-12T03:29:07.024Z,88.82
2018-04-12T03:30:07.116Z,89.20
2018-04-12T03:31:07.209Z,89.11
2018-04-12T03:32:07.306Z,89.20
2018-04-12T03:33:07.403Z,89.30
2018-04-12T03:34:07.500Z,89.20
2018-04-12T03:35:07.602Z,89.30
2018-04-12T03:36:07.699Z,89.78
2018-04-12T03:37:07.795Z,89.64
2018-04-12T03:38:07.906Z,89.78
2018-04-12T03:39:08.005Z,89.30
2018-04-12T03:40:08.095Z,89.11
2018-04-12T03:41:08.190Z,89.01
2018-04-12T03:42:08.316Z,89.01
2018-04-12T03:43:08.383Z,89.20
2018-04-12T03:44:08.478Z,89.20
2018-04-12T03:45:08.571Z,88.82
2018-04-12T03:46:08.664Z,88.92
2018-04-12T03:47:08.760Z,89.68
2018-04-12T03:48:08.856Z,89.11
2018-04-12T03:49:08.975Z,89.11
2018-04-12T03:50:09.050Z,89.20
2018-04-12T03:51:09.141Z,89.30
2018-04-12T03:52:09.232Z,90.16
2018-04-12T03:53:09.328Z,89.78
2018-04-12T03:54:09.420Z,89.73
2018-04-12T03:55:09.517Z,89.64
2018-04-12T03:56:09.608Z,89.73
2018-04-12T03:57:09.713Z,89.83
2018-04-12T03:58:09.803Z,89.59
2018-04-12T03:59:09.897Z,89.49
2018-04-12T04:00:09.999Z,89.30
2018-04-12T04:01:10.100Z,89.20
2018-04-12T04:02:10.179Z,89.20
2018-04-12T04:03:10.274Z,89.11
2018-04-12T04:04:10.367Z,89.20
2018-04-12T04:05:10.459Z,88.73
2018-04-12T04:06:10.553Z,88.63
2018-04-12T04:07:10.644Z,88.44
2018-04-12T04:08:10.761Z,88.63
2018-04-12T04:09:10.858Z,88.44
2018-04-12T04:10:10.951Z,88.63
2018-04-12T04:11:11.045Z,88.54
2018-04-12T04:12:11.144Z,88.44
2018-04-12T04:13:11.238Z,88.15
2018-04-12T04:14:11.341Z,88.15
2018-04-12T04:15:11.431Z,88.34
2018-04-12T04:16:11.524Z,88.44
2018-04-12T04:17:11.616Z,88.54
2018-04-12T04:18:11.715Z,88.82
2018-04-12T04:19:11.814Z,88.44
2018-04-12T04:20:11.911Z,88.63
2018-04-12T04:21:12.007Z,88.06
2018-04-12T04:22:12.098Z,88.25
2018-04-12T04:23:12.193Z,88.25
2018-04-12T04:24:12.285Z,87.96
2018-04-12T04:25:12.382Z,88.06
2018-04-12T04:26:12.485Z,88.34
2018-04-12T04:27:12.585Z,87.96
2018-04-12T04:28:12.689Z,88.63
2018-04-12T04:29:12.785Z,88.73
2018-04-12T04:30:12.880Z,88.44
2018-04-12T04:31:12.980Z,88.54
2018-04-12T04:32:13.071Z,88.54
2018-04-12T04:33:13.168Z,88.06
2018-04-12T04:34:13.269Z,88.34
2018-04-12T04:35:13.368Z,88.06
2018-04-12T04:36:13.464Z,88.15
2018-04-12T04:37:13.567Z,88.44
2018-04-12T04:38:13.660Z,87.77
2018-04-12T04:39:13.754Z,87.77
2018-04-12T04:40:13.849Z,87.77
2018-04-12T04:41:13.942Z,87.96
2018-04-12T04:42:14.041Z,88.44
2018-04-12T04:43:14.141Z,87.87
2018-04-12T04:44:14.258Z,87.77
2018-04-12T04:45:14.354Z,87.77
2018-04-12T04:46:14.451Z,87.87
2018-04-12T04:47:14.548Z,87.96
2018-04-12T04:48:14.649Z,87.87
2018-04-12T04:49:14.734Z,87.68
2018-04-12T04:50:14.823Z,87.48
2018-04-12T04:51:14.925Z,87.29
2018-04-12T04:52:15.017Z,87.77
2018-04-12T04:53:15.115Z,88.25
2018-04-12T04:54:15.212Z,88.34
2018-04-12T04:55:15.303Z,88.25
2018-04-12T04:56:15.399Z,88.25
2018-04-12T04:57:15.500Z,88.25
2018-04-12T04:58:15.617Z,87.96
2018-04-12T04:59:15.695Z,87.96
2018-04-12T05:00:15.792Z,88.06
2018-04-12T05:01:15.890Z,87.96
2018-04-12T05:02:15.984Z,88.06
2018-04-12T05:03:16.083Z,88.25
2018-04-12T05:04:16.177Z,88.15
2018-04-12T05:05:16.276Z,87.87
2018-04-12T05:06:16.375Z,87.77
2018-04-12T05:07:16.527Z,87.48
2018-04-12T05:08:16.570Z,87.58
2018-04-12T05:09:16.665Z,87.48
2018-04-12T05:10:16.761Z,87.87
2018-04-12T05:11:16.857Z,87.68
2018-04-12T05:12:16.955Z,87.58
2018-04-12T05:13:17.051Z,87.87
2018-04-12T05:14:17.147Z,87.77
2018-04-12T05:15:17.241Z,87.48
2018-04-12T05:16:17.341Z,87.77
2018-04-12T05:17:17.438Z,87.87
2018-04-12T05:18:17.530Z,88.25
2018-04-12T05:19:17.624Z,88.54
2018-04-12T05:20:17.717Z,88.54
2018-04-12T05:21:17.814Z,88.25
2018-04-12T05:22:17.912Z,88.06
2018-04-12T05:23:18.010Z,88.25
2018-04-12T05:24:18.107Z,87.77
2018-04-12T05:25:18.205Z,87.39
2018-04-12T05:26:18.299Z,87.29
2018-04-12T05:27:18.401Z,86.82
2018-04-12T05:28:18.493Z,86.57
2018-04-12T05:29:18.593Z,86.38
2018-04-12T05:30:18.687Z,86.10
2018-04-12T05:31:18.785Z,86.96
2018-04-12T05:32:18.887Z,85.90
2018-04-12T05:33:18.978Z,86.67
2018-04-12T05:34:19.136Z,86.38
2018-04-12T05:35:19.227Z,86.29
2018-04-12T05:36:19.343Z,86.57
2018-04-12T05:37:19.464Z,86.38
2018-04-12T05:38:19.577Z,86.00
2018-04-12T05:39:19.667Z,85.28
2018-04-12T05:40:19.797Z,85.28
2018-04-12T05:41:19.895Z,84.99
2018-04-12T05:42:20.009Z,84.89
2018-04-12T05:43:20.174Z,84.42
2018-04-12T05:44:20.149Z,84.03
2018-04-12T05:45:20.250Z,84.52
2018-04-12T05:46:20.360Z,84.42
2018-04-12T05:47:20.441Z,83.46
2018-04-12T05:48:20.542Z,83.65
2018-04-12T05:49:20.638Z,83.56
2018-04-12T05:50:20.733Z,83.27
2018-04-12T05:51:20.940Z,83.37
2018-04-12T05:53:53.121Z,84.61
2018-04-12T05:54:53.137Z,83.51
2018-04-12T05:55:53.214Z,84.52
2018-04-12T05:56:53.567Z,84.47
2018-04-12T05:57:53.707Z,84.09
2018-04-12T05:58:53.437Z,84.19
2018-04-12T05:59:53.643Z,84.19
2018-04-12T06:00:53.688Z,84.28
2018-04-12T06:01:53.676Z,84.28
2018-04-12T06:02:53.770Z,85.09
2018-04-12T06:03:53.892Z,84.42
2018-04-12T06:04:54.000Z,84.32
2018-04-12T06:05:54.094Z,83.42
2018-04-12T06:06:54.160Z,83.42
2018-04-12T06:07:54.284Z,83.37
2018-04-12T06:08:54.523Z,83.65
2018-04-12T06:09:55.597Z,83.61
2018-04-12T06:10:54.632Z,83.23
2018-04-12T06:11:54.761Z,84.28
2018-04-12T06:12:54.860Z,84.76
2018-04-12T06:13:54.954Z,84.09
2018-04-12T06:14:55.117Z,84.76
2018-04-12T06:15:55.212Z,84.95
2018-04-12T06:16:55.596Z,85.14
2018-04-12T06:17:56.810Z,84.85
2018-04-12T06:18:55.915Z,84.38
2018-04-12T06:19:55.868Z,84.38
2018-04-12T06:20:55.774Z,84.13
2018-04-12T06:21:56.298Z,83.37
2018-04-12T06:22:57.863Z,83.56
2018-04-12T06:23:56.281Z,83.33
2018-04-12T06:24:56.241Z,83.51
2018-04-12T06:25:56.433Z,83.70
2018-04-12T06:26:56.508Z,83.23
2018-04-12T06:27:56.705Z,83.23
2018-04-12T06:28:56.710Z,83.51
2018-04-12T06:29:56.851Z,83.65
2018-04-12T06:30:56.958Z,83.08
2018-04-12T06:31:57.061Z,82.79
2018-04-12T06:32:57.164Z,82.70
2018-04-12T06:33:57.362Z,82.31
2018-04-12T06:34:57.510Z,82.31
2018-04-12T06:35:57.492Z,81.40
2018-04-12T06:36:57.854Z,81.65
2018-04-12T06:37:57.666Z,82.31
2018-04-12T06:38:57.871Z,82.22
2018-04-12T06:39:57.840Z,82.12
2018-04-12T06:40:57.943Z,82.41
2018-04-12T06:41:58.163Z,82.41
2018-04-12T06:42:58.188Z,82.12
2018-04-12T06:43:58.295Z,82.03
2018-04-12T06:44:58.388Z,82.41
2018-04-12T06:45:58.497Z,82.31
2018-04-12T06:46:58.590Z,81.45
2018-04-12T06:47:58.771Z,82.12
2018-04-12T06:48:58.731Z,81.36
2018-04-12T06:49:58.824Z,81.36
2018-04-12T06:50:58.933Z,81.49
2018-04-12T06:51:59.029Z,80.92
2018-04-12T06:52:59.149Z,80.44
2018-04-12T06:53:59.473Z,79.81
2018-04-12T06:54:59.278Z,79.18
2018-04-12T06:55:59.371Z,77.46
2018-04-12T06:56:59.458Z,76.73
2018-04-12T06:57:59.556Z,76.92
2018-04-12T06:58:59.636Z,76.15
2018-04-12T06:59:59.832Z,76.50
2018-04-12T07:00:59.831Z,76.94
2018-04-12T07:01:59.976Z,77.17
2018-04-12T07:03:00.183Z,76.79
2018-04-12T07:04:00.223Z,76.15
2018-04-12T07:05:00.185Z,75.48
2018-04-12T07:06:00.411Z,75.33
2018-04-12T07:07:00.505Z,74.18
2018-04-12T07:08:00.498Z,73.41
2018-04-12T07:09:00.608Z,72.74
2018-04-12T07:10:00.703Z,72.27
2018-04-12T07:11:00.859Z,72.90
2018-04-12T07:12:01.001Z,72.99
2018-04-12T07:13:01.089Z,73.57
2018-04-12T07:14:01.183Z,73.57
2018-04-12T07:15:01.363Z,74.24
2018-04-12T07:16:01.323Z,74.82
2018-04-12T07:17:01.448Z,74.05
2018-04-12T07:18:02.068Z,74.52
2018-04-12T07:19:01.735Z,74.43
2018-04-12T07:20:01.840Z,73.61
2018-04-12T07:21:01.969Z,73.03
2018-04-12T07:22:02.148Z,72.84
2018-04-12T07:23:02.189Z,71.59
2018-04-12T07:24:02.357Z,71.53
2018-04-12T07:25:02.454Z,71.53
2018-04-12T07:26:02.588Z,70.90
2018-04-12T07:27:02.722Z,70.73
2018-04-12T07:28:02.844Z,71.78
2018-04-12T07:29:03.158Z,73.76
2018-04-12T07:30:02.940Z,73.51
2018-04-12T07:31:03.035Z,72.99
2018-04-12T07:32:03.116Z,74.43
2018-04-12T07:33:03.201Z,74.33
2018-04-12T07:34:03.316Z,73.80
2018-04-12T07:35:03.458Z,72.30
2018-04-12T07:36:03.514Z,71.63
2018-04-12T07:37:03.596Z,71.28
2018-04-12T07:38:03.731Z,70.29
2018-04-12T07:39:03.834Z,69.90
2018-04-12T07:40:03.927Z,70.19
2018-04-12T07:41:04.014Z,70.86
2018-04-12T07:42:04.112Z,70.09
2018-04-12T07:43:04.281Z,70.64
2018-04-12T07:44:04.272Z,71.34
2018-04-12T07:45:04.377Z,71.53
2018-04-12T07:46:04.545Z,71.34
2018-04-12T07:47:04.610Z,70.83
2018-04-12T07:48:04.601Z,70.96
2018-04-12T07:49:04.696Z,70.57
2018-04-12T07:50:05.553Z,70.09
2018-04-12T07:51:04.950Z,70.57
2018-04-12T07:52:05.053Z,70.83
2018-04-12T07:53:05.150Z,71.02
2018-04-12T07:54:05.330Z,71.27
2018-04-12T07:55:05.479Z,71.37
2018-04-12T07:56:05.450Z,72.23
2018-04-12T07:57:05.556Z,72.42
2018-04-12T07:58:05.806Z,72.13
2018-04-12T07:59:05.781Z,73.38
2018-04-12T08:00:05.876Z,72.55
2018-04-12T08:01:06.030Z,72.17
2018-04-12T08:02:06.269Z,71.50
2018-04-12T08:03:06.273Z,71.69
2018-04-12T08:04:06.278Z,71.50
2018-04-12T08:05:06.406Z,71.31
2018-04-12T08:06:07.504Z,71.21
2018-04-12T08:07:06.617Z,71.88
2018-04-12T08:08:06.725Z,71.31
2018-04-12T08:09:06.851Z,72.23
2018-04-12T08:10:06.961Z,72.32
2018-04-12T08:11:07.198Z,72.86
2018-04-12T08:12:07.139Z,73.82
2018-04-12T08:13:07.323Z,74.58
2018-04-12T08:14:07.307Z,75.02
2018-04-12T08:15:07.402Z,75.70
2018-04-12T08:16:07.560Z,75.89
2018-04-12T08:17:07.660Z,75.98
2018-04-12T08:18:07.885Z,75.70
2018-04-12T08:19:07.857Z,76.08
2018-04-12T08:20:07.963Z,76.37
2018-04-12T08:21:08.101Z,75.93
2018-04-12T08:22:08.248Z,75.41
2018-04-12T08:23:08.334Z,76.02
2018-04-12T08:24:08.494Z,75.73
2018-04-12T08:25:08.566Z,74.68
2018-04-12T08:26:08.667Z,74.40
2018-04-12T08:27:08.763Z,74.24
2018-04-12T08:28:08.864Z,73.95
2018-04-12T08:29:08.960Z,73.47
2018-04-12T08:30:09.066Z,72.99
2018-04-12T08:31:09.162Z,72.32
2018-04-12T08:32:09.261Z,72.32
2018-04-12T08:33:09.407Z,72.13
2018-04-12T08:34:09.500Z,72.42
2018-04-12T08:35:09.596Z,72.42
2018-04-12T08:36:09.927Z,72.32
2018-04-12T08:37:09.769Z,72.71
2018-04-12T08:38:09.940Z,72.80
2018-04-12T08:39:09.920Z,72.42
2018-04-12T08:40:10.018Z,72.58
2018-04-12T08:41:10.115Z,73.24
2018-04-12T08:42:10.252Z,72.96
2018-04-12T08:43:10.369Z,73.63
2018-04-12T08:44:10.470Z,73.34
2018-04-12T08:45:10.568Z,73.09
2018-04-12T08:46:10.669Z,72.71
2018-04-12T08:47:10.767Z,72.52
2018-04-12T08:48:10.867Z,72.42
2018-04-12T08:49:10.964Z,72.23
2018-04-12T08:50:11.119Z,72.13
2018-04-12T08:51:11.209Z,72.61
2018-04-12T08:52:11.306Z,72.32
2018-04-12T08:53:11.402Z,72.55
2018-04-12T08:54:11.502Z,71.31
2018-04-12T08:55:11.599Z,71.40
2018-04-12T08:56:11.695Z,71.02
2018-04-12T08:57:11.809Z,71.05
2018-04-12T08:58:11.902Z,70.09
2018-04-12T08:59:11.998Z,70.44
2018-04-12T09:00:12.099Z,70.19
2018-04-12T09:01:12.201Z,69.90
2018-04-12T09:02:12.295Z,70.19
2018-04-12T09:03:12.396Z,69.52
2018-04-12T09:04:12.513Z,69.33
2018-04-12T09:05:12.607Z,69.13
2018-04-12T09:06:12.708Z,69.13
2018-04-12T09:07:12.804Z,68.66
2018-04-12T09:08:12.901Z,68.46
2018-04-12T09:09:13.005Z,68.75
2018-04-12T09:10:13.100Z,69.20
2018-04-12T09:11:13.208Z,69.68
2018-04-12T09:12:13.321Z,69.58
2018-04-12T09:13:13.404Z,70.15
2018-04-12T09:14:13.504Z,69.68
2018-04-12T09:15:13.606Z,69.87
2018-04-12T09:16:13.698Z,69.68
2018-04-12T09:17:13.794Z,69.52
2018-04-12T09:18:13.892Z,69.13
2018-04-12T09:19:13.995Z,68.46
2018-04-12T09:20:14.093Z,68.95
2018-04-12T09:21:14.192Z,68.56
2018-04-12T09:22:14.291Z,68.59
2018-04-12T09:23:14.402Z,67.69
2018-04-12T09:24:14.499Z,68.85
2018-04-12T09:25:14.596Z,68.46
2018-04-12T09:26:14.690Z,68.56
2018-04-12T09:27:14.817Z,68.56
2018-04-12T09:28:14.890Z,68.37
2018-04-12T09:29:14.994Z,68.59
2018-04-12T09:30:15.086Z,67.73
2018-04-12T09:31:15.200Z,67.06
2018-04-12T09:32:15.282Z,67.63
2018-04-12T09:33:15.442Z,68.12
2018-04-12T09:34:15.500Z,67.38
2018-04-12T09:35:15.603Z,67.19
2018-04-12T09:36:15.702Z,67.09
2018-04-12T09:37:15.801Z,67.06
2018-04-12T09:38:15.899Z,67.09
2018-04-12T09:39:15.986Z,66.67
2018-04-12T09:40:16.086Z,66.19
2018-04-12T09:41:16.187Z,66.23
2018-04-12T09:42:16.284Z,65.84
2018-04-12T09:43:16.384Z,66.67
2018-04-12T09:44:16.481Z,65.65
2018-04-12T09:45:16.581Z,66.39
2018-04-12T09:46:16.694Z,65.91
2018-04-12T09:47:16.777Z,65.94
2018-04-12T09:48:16.879Z,65.46
2018-04-12T09:49:16.998Z,65.36
2018-04-12T09:50:17.077Z,65.36
2018-04-12T09:51:17.174Z,66.03
2018-04-12T09:52:17.290Z,66.71
2018-04-12T09:53:17.388Z,66.33
2018-04-12T09:54:17.491Z,65.17
2018-04-12T09:55:17.591Z,66.52
2018-04-12T09:56:17.689Z,66.52
2018-04-12T09:57:17.790Z,66.23
2018-04-12T09:58:17.888Z,65.08
2018-04-12T09:59:17.990Z,65.01
2018-04-12T10:00:18.108Z,64.72
2018-04-12T10:01:18.202Z,64.53
2018-04-12T10:02:18.304Z,64.05
2018-04-12T10:03:18.405Z,64.25
2018-04-12T10:04:18.505Z,64.25
2018-04-12T10:05:18.608Z,64.63
2018-04-12T10:06:18.703Z,64.76
2018-04-12T10:07:18.828Z,64.28
2018-04-12T10:08:18.932Z,64.28
2018-04-12T10:09:19.027Z,63.32
2018-04-12T10:10:19.125Z,62.74
2018-04-12T10:11:19.225Z,62.55
2018-04-12T10:12:19.329Z,63.02
2018-04-12T10:13:19.425Z,63.51
2018-04-12T10:14:19.522Z,63.51
2018-04-12T10:15:19.621Z,62.26
2018-04-12T10:16:19.722Z,61.91
2018-04-12T10:17:19.824Z,61.30
2018-04-12T10:18:19.927Z,60.82
2018-04-12T10:19:20.024Z,60.82
2018-04-12T10:20:20.120Z,60.82
2018-04-12T10:21:20.239Z,62.26
2018-04-12T10:22:20.369Z,63.51
2018-04-12T10:23:20.493Z,62.74
2018-04-12T10:24:20.575Z,63.12
2018-04-12T10:25:20.674Z,63.45
2018-04-12T10:26:20.763Z,62.96
2018-04-12T10:27:20.865Z,62.45
2018-04-12T10:28:20.955Z,63.02
2018-04-12T10:29:21.090Z,62.84
2018-04-12T10:30:21.190Z,62.16
2018-04-12T10:31:21.294Z,62.64
2018-04-12T10:32:21.404Z,63.22
2018-04-12T10:33:21.523Z,63.22
2018-04-12T10:34:21.635Z,63.02
2018-04-12T10:35:21.736Z,62.35
2018-04-12T10:36:21.837Z,63.32
2018-04-12T10:37:21.936Z,64.28
2018-04-12T10:38:22.040Z,63.41
2018-04-12T10:39:22.170Z,62.74
2018-04-12T10:40:22.232Z,63.02
2018-04-12T10:41:22.322Z,63.35
2018-04-12T10:42:22.552Z,61.81
2018-04-12T10:43:22.517Z,60.37
2018-04-12T10:44:22.633Z,60.85
2018-04-12T10:45:23.536Z,61.23
2018-04-12T10:46:23.418Z,61.71
2018-04-12T10:47:23.013Z,61.61
2018-04-12T10:48:23.166Z,60.85
2018-04-12T10:49:23.275Z,60.94
2018-04-12T10:50:23.432Z,60.30
2018-04-12T10:51:23.554Z,60.27
2018-04-12T10:52:23.666Z,60.75
2018-04-12T10:53:23.762Z,62.10
2018-04-12T10:54:23.872Z,60.94
2018-04-12T10:55:23.990Z,60.78
2018-04-12T10:56:24.117Z,60.39
2018-04-12T10:57:24.216Z,60.97
2018-04-12T10:58:24.317Z,60.01
2018-04-12T10:59:24.496Z,60.30
2018-04-12T11:00:24.459Z,59.92
2018-04-12T11:01:24.591Z,59.72
2018-04-12T11:02:24.608Z,59.92
2018-04-12T11:03:24.750Z,59.82
2018-04-12T11:04:24.934Z,60.04
2018-04-12T11:05:24.984Z,59.94
2018-04-12T11:06:25.173Z,60.01
2018-04-12T11:07:25.137Z,59.53
2018-04-12T11:08:25.941Z,59.75
2018-04-12T11:09:25.341Z,59.66
2018-04-12T11:10:25.429Z,59.56
2018-04-12T11:11:25.527Z,59.56
2018-04-12T11:12:25.772Z,59.66
2018-04-12T11:13:25.770Z,58.79
2018-04-12T11:14:25.885Z,58.72
2018-04-12T11:15:25.888Z,58.34
2018-04-12T11:16:26.035Z,58.24
2018-04-12T11:17:26.642Z,57.28
2018-04-12T11:18:26.363Z,57.76
2018-04-12T11:19:26.445Z,58.44
2018-04-12T11:20:26.537Z,58.82
2018-04-12T11:21:26.826Z,58.75
2018-04-12T11:22:26.713Z,59.81
2018-04-12T11:23:26.852Z,59.43
2018-04-12T11:24:26.958Z,58.88
2018-04-12T11:25:27.041Z,57.12
2018-04-12T11:26:27.110Z,57.05
2018-04-12T11:27:27.216Z,57.05
2018-04-12T11:28:27.317Z,56.95
2018-04-12T11:29:27.470Z,57.43
2018-04-12T11:30:27.451Z,57.89
2018-04-12T11:31:27.555Z,57.14
2018-04-12T11:32:27.681Z,58.30
2018-04-12T11:33:27.787Z,58.53
2018-04-12T11:34:27.914Z,59.40
2018-04-12T11:35:28.056Z,58.65
2018-04-12T11:36:28.153Z,58.17
2018-04-12T11:37:28.243Z,57.98
2018-04-12T11:38:28.384Z,58.08
2018-04-12T11:39:28.485Z,58.08
2018-04-12T11:40:28.484Z,58.56
2018-04-12T11:41:28.612Z,58.92
2018-04-12T11:42:28.711Z,59.49
2018-04-12T11:43:28.822Z,58.27
2018-04-12T11:44:28.914Z,57.98
2018-04-12T11:45:29.052Z,58.44
2018-04-12T11:46:29.155Z,59.30
2018-04-12T11:47:29.241Z,59.78
2018-04-12T11:48:29.372Z,59.49
2018-04-12T11:49:29.471Z,59.01
2018-04-12T11:50:29.580Z,58.75
2018-04-12T11:51:29.703Z,58.65
2018-04-12T11:52:29.790Z,59.23
2018-04-12T11:53:29.897Z,59.23
2018-04-12T11:54:30.042Z,58.47
2018-04-12T11:55:30.173Z,58.49
2018-04-12T11:56:31.126Z,58.20
2018-04-12T11:57:31.050Z,58.17
2018-04-12T11:58:30.534Z,58.37
2018-04-12T11:59:30.678Z,58.53
2018-04-12T12:00:30.790Z,58.72
2018-04-12T12:01:30.893Z,59.11
2018-04-12T12:02:30.987Z,59.88
2018-04-12T12:03:31.125Z,59.40
2018-04-12T12:04:31.237Z,58.85
2018-04-12T12:05:31.344Z,58.95
2018-04-12T12:06:31.507Z,58.01
2018-04-12T12:07:31.527Z,57.92
2018-04-12T12:08:31.648Z,57.72
2018-04-12T12:09:31.754Z,56.76
2018-04-12T12:10:31.866Z,55.82
2018-04-12T12:11:31.994Z,55.92
2018-04-12T12:12:32.094Z,56.30
2018-04-12T12:13:32.201Z,55.44
2018-04-12T12:14:32.315Z,54.96
2018-04-12T12:15:32.413Z,54.66
2018-04-12T12:16:32.524Z,54.79
2018-04-12T12:17:32.677Z,54.02
2018-04-12T12:18:32.766Z,54.21
2018-04-12T12:19:32.873Z,54.50
2018-04-12T12:20:32.958Z,54.60
2018-04-12T12:21:33.068Z,54.50
2018-04-12T12:22:33.187Z,54.53
2018-04-12T12:23:33.298Z,53.27
2018-04-12T12:24:33.403Z,54.21
2018-04-12T12:25:33.507Z,54.31
2018-04-12T12:26:33.629Z,52.95
2018-04-12T12:27:33.736Z,53.05
2018-04-12T12:28:33.862Z,53.34
2018-04-12T12:29:33.950Z,53.27
2018-04-12T12:30:34.098Z,52.31
2018-04-12T12:31:34.164Z,53.08
2018-04-12T12:32:34.308Z,53.17
2018-04-12T12:33:34.393Z,53.08
2018-04-12T12:34:34.530Z,52.50
2018-04-12T12:35:34.642Z,52.21
2018-04-12T12:36:34.734Z,52.21
2018-04-12T12:37:34.843Z,52.72
2018-04-12T12:38:34.954Z,52.04
2018-04-12T12:39:35.057Z,51.37
2018-04-12T12:40:35.165Z,51.07
2018-04-12T12:41:35.272Z,52.40
2018-04-12T12:42:35.373Z,53.11
2018-04-12T12:43:35.479Z,52.81
2018-04-12T12:44:35.597Z,52.91
2018-04-12T12:45:35.688Z,52.62
2018-04-12T12:46:35.905Z,52.91
2018-04-12T12:47:35.928Z,52.69
2018-04-12T12:48:36.044Z,53.08
2018-04-12T12:49:36.223Z,52.81
2018-04-12T12:50:36.409Z,52.62
2018-04-12T12:51:36.566Z,52.65
2018-04-12T12:52:36.592Z,52.89
2018-04-12T12:53:36.699Z,53.56
2018-04-12T12:54:36.810Z,53.49
2018-04-12T12:55:36.901Z,53.20